Time;durP1;ratioP1;P1;durP2;ratioP2;P2;SDS_P1;SDS_P2;PMS_P1;PMS_P2;Temp;Humidity;BMP_temperature;BMP_pressure;BME280_temperature;BME280_humidity;BME280_pressure;Samples;Min_cycle;Max_cycle;Signal;HPM_P1;HPM_P2
2021/05/26 00:02:23;;;;;;;10.55;7.28;;;;;;;;;;5025489;28;20213;-68
2021/05/26 00:04:48;;;;;;;9.15;6.00;;;;;;;;;;5023877;28;20213;-69
2021/05/26 00:07:13;;;;;;;12.45;6.80;;;;;;;;;;5017078;28;20194;-68
2021/05/26 00:09:39;;;;;;;14.18;6.93;;;;;;;;;;5025755;28;20197;-69
2021/05/26 00:12:04;;;;;;;10.07;6.80;;;;;;;;;;5015322;28;20542;-69
2021/05/26 00:14:30;;;;;;;8.52;6.82;;;;;;;;;;5027587;28;20201;-68
2021/05/26 00:16:55;;;;;;;12.73;7.28;;;;;;;;;;5022685;28;20332;-68
2021/05/26 00:19:21;;;;;;;11.48;7.88;;;;;;;;;;5037005;28;20231;-68
2021/05/26 00:21:46;;;;;;;12.48;7.45;;;;;;;;;;5026433;28;20574;-68
2021/05/26 00:24:12;;;;;;;13.55;7.60;;;;;;;;;;5037435;28;20641;-69
2021/05/26 00:26:37;;;;;;;15.05;8.00;;;;;;;;;;5027483;28;20178;-68
2021/05/26 00:29:03;;;;;;;11.93;7.82;;;;;;;;;;5033753;28;20197;-68
2021/05/26 00:31:28;;;;;;;17.00;8.82;;;;;;;;;;5033595;28;20252;-68
2021/05/26 00:33:54;;;;;;;11.07;8.52;;;;;;;;;;5040234;28;20189;-68
2021/05/26 00:36:19;;;;;;;9.82;8.35;;;;;;;;;;5032010;28;20186;-68
2021/05/26 00:38:44;;;;;;;14.38;9.50;;;;;;;;;;5033385;28;21308;-68
2021/05/26 00:41:10;;;;;;;16.75;9.98;;;;;;;;;;5033002;28;20189;-69
2021/05/26 00:43:35;;;;;;;16.33;10.13;;;;;;;;;;5027182;28;20684;-70
2021/05/26 00:46:01;;;;;;;15.57;11.13;;;;;;;;;;5035406;28;20204;-67
2021/05/26 00:48:27;;;;;;;20.60;11.82;;;;;;;;;;5025557;28;20275;-71
2021/05/26 00:50:53;;;;;;;14.60;12.05;;;;;;;;;;5035248;28;20234;-70
2021/05/26 00:53:19;;;;;;;17.83;12.65;;;;;;;;;;5035453;28;20666;-70
2021/05/26 00:55:45;;;;;;;16.50;13.05;;;;;;;;;;5041083;28;20656;-68
2021/05/26 00:58:11;;;;;;;22.92;14.75;;;;;;;;;;5040279;28;20181;-67
2021/05/26 01:00:39;;;;;;;18.17;14.18;;;;;;;;;;5038933;28;20185;-68
2021/05/26 01:03:05;;;;;;;23.98;16.65;;;;;;;;;;5036491;28;20209;-69
2021/05/26 01:05:31;;;;;;;21.75;16.83;;;;;;;;;;5032855;28;20241;-72
2021/05/26 01:07:57;;;;;;;28.35;16.48;;;;;;;;;;5040399;28;20559;-71
2021/05/26 01:10:29;;;;;;;22.17;15.65;;;;;;;;;;5030869;28;20193;-70
2021/05/26 01:12:55;;;;;;;21.50;14.20;;;;;;;;;;5040500;28;20807;-71
2021/05/26 01:15:22;;;;;;;21.20;12.98;;;;;;;;;;5031287;28;20207;-70
2021/05/26 01:17:48;;;;;;;18.40;13.50;;;;;;;;;;5044402;28;20603;-71
2021/05/26 01:20:26;;;;;;;24.65;15.43;;;;;;;;;;5029238;28;20188;-70
2021/05/26 01:22:52;;;;;;;26.00;17.85;;;;;;;;;;5040456;28;21098;-68
2021/05/26 01:25:18;;;;;;;32.30;19.58;;;;;;;;;;5027636;28;20193;-67
2021/05/26 01:27:44;;;;;;;37.30;21.50;;;;;;;;;;5038957;28;20275;-68
2021/05/26 01:30:09;;;;;;;32.70;21.52;;;;;;;;;;5028956;28;20185;-69
2021/05/26 01:32:47;;;;;;;34.17;22.20;;;;;;;;;;5050298;28;20258;-70
2021/05/26 01:35:13;;;;;;;37.45;23.83;;;;;;;;;;5028172;28;20693;-70
2021/05/26 01:37:41;;;;;;;35.40;23.48;;;;;;;;;;5047273;28;20276;-67
2021/05/26 01:40:09;;;;;;;35.85;21.98;;;;;;;;;;5035680;28;20196;-69
2021/05/26 01:42:35;;;;;;;37.00;23.55;;;;;;;;;;5038632;28;20213;-68
2021/05/26 01:45:04;;;;;;;36.22;24.27;;;;;;;;;;5036185;28;20204;-69
2021/05/26 01:47:29;;;;;;;40.00;23.10;;;;;;;;;;5029629;28;20674;-69
2021/05/26 01:49:55;;;;;;;34.65;17.90;;;;;;;;;;5038374;28;20241;-69
2021/05/26 01:52:20;;;;;;;40.10;22.33;;;;;;;;;;5031380;28;20177;-69
2021/05/26 01:54:45;;;;;;;42.55;22.30;;;;;;;;;;5038037;28;20228;-71
2021/05/26 01:57:13;;;;;;;32.72;20.58;;;;;;;;;;5038868;28;20201;-69
2021/05/26 01:59:38;;;;;;;37.90;21.80;;;;;;;;;;5037376;28;20185;-68
2021/05/26 02:02:04;;;;;;;42.30;23.10;;;;;;;;;;5034955;28;20216;-68
2021/05/26 02:04:29;;;;;;;36.17;21.90;;;;;;;;;;5038584;28;20285;-68
2021/05/26 02:07:10;;;;;;;34.10;19.65;;;;;;;;;;5032393;28;20197;-70
2021/05/26 02:09:35;;;;;;;36.28;20.38;;;;;;;;;;5035770;28;20189;-69
2021/05/26 02:14:46;;;;;;;37.55;21.10;;;;;;;;;;5035641;28;21668;-68
2021/05/26 02:17:11;;;;;;;41.13;21.97;;;;;;;;;;5027433;28;20193;-70
2021/05/26 02:19:37;;;;;;;36.70;21.23;;;;;;;;;;5037616;28;20198;-68
2021/05/26 02:22:02;;;;;;;36.17;20.88;;;;;;;;;;5045246;28;20316;-70
2021/05/26 02:24:28;;;;;;;40.70;20.40;;;;;;;;;;5027736;28;20316;-68
2021/05/26 02:26:53;;;;;;;35.83;20.50;;;;;;;;;;5037476;28;20190;-70
2021/05/26 02:29:19;;;;;;;33.33;19.73;;;;;;;;;;5028714;28;20670;-70
2021/05/26 02:31:44;;;;;;;32.00;18.60;;;;;;;;;;5039381;28;20706;-67
2021/05/26 02:34:10;;;;;;;30.20;17.87;;;;;;;;;;5029145;28;20197;-70
2021/05/26 02:36:35;;;;;;;32.08;16.80;;;;;;;;;;5038611;28;20254;-68
2021/05/26 02:39:00;;;;;;;29.40;17.57;;;;;;;;;;5029153;28;20197;-68
2021/05/26 02:41:26;;;;;;;27.90;17.40;;;;;;;;;;5036716;28;20196;-67
2021/05/26 02:43:51;;;;;;;24.53;15.80;;;;;;;;;;5034702;28;20299;-72
2021/05/26 02:46:17;;;;;;;30.47;17.47;;;;;;;;;;5037032;28;20663;-68
2021/05/26 02:48:42;;;;;;;31.33;17.83;;;;;;;;;;5038543;28;20228;-68
2021/05/26 02:51:07;;;;;;;30.03;16.20;;;;;;;;;;5028727;28;20229;-67
2021/05/26 02:53:33;;;;;;;32.07;16.77;;;;;;;;;;5036897;28;20201;-68
2021/05/26 02:55:58;;;;;;;23.37;15.60;;;;;;;;;;5026356;28;20280;-68
2021/05/26 02:58:23;;;;;;;24.93;14.63;;;;;;;;;;5034911;28;20240;-69
2021/05/26 03:00:49;;;;;;;22.27;13.57;;;;;;;;;;5027663;28;20570;-69
2021/05/26 03:03:15;;;;;;;22.00;12.57;;;;;;;;;;5036596;28;20268;-69
2021/05/26 03:05:40;;;;;;;21.60;11.63;;;;;;;;;;5029630;28;20645;-69
2021/05/26 03:08:05;;;;;;;19.70;13.13;;;;;;;;;;5040304;28;20678;-68
2021/05/26 03:10:31;;;;;;;24.30;11.87;;;;;;;;;;5026595;28;20197;-67
2021/05/26 03:12:56;;;;;;;20.40;12.30;;;;;;;;;;5035970;28;20196;-69
2021/05/26 03:15:21;;;;;;;18.20;11.83;;;;;;;;;;5033369;28;20613;-68
2021/05/26 03:17:47;;;;;;;18.40;11.27;;;;;;;;;;5043933;28;20252;-68
2021/05/26 03:20:14;;;;;;;17.37;10.97;;;;;;;;;;5037033;28;20182;-68
2021/05/26 03:22:42;;;;;;;15.63;10.13;;;;;;;;;;5029452;28;20224;-67
2021/05/26 03:25:09;;;;;;;17.33;10.40;;;;;;;;;;5036571;28;20273;-68
2021/05/26 03:27:36;;;;;;;15.20;10.45;;;;;;;;;;5030808;28;20553;-67
2021/05/26 03:30:20;;;;;;;13.13;8.37;;;;;;;;;;5038534;28;20641;-69
2021/05/26 03:32:46;;;;;;;14.80;8.77;;;;;;;;;;5030838;28;20698;-67
2021/05/26 03:35:13;;;;;;;12.55;8.20;;;;;;;;;;5034684;28;20258;-68
2021/05/26 03:37:39;;;;;;;20.70;9.20;;;;;;;;;;5029817;28;20278;-69
2021/05/26 03:40:07;;;;;;;12.55;7.38;;;;;;;;;;5033728;28;20189;-67
2021/05/26 03:42:32;;;;;;;13.50;6.90;;;;;;;;;;5027190;28;20300;-67
2021/05/26 03:44:57;;;;;;;10.85;7.55;;;;;;;;;;5035076;28;20280;-68
2021/05/26 03:47:23;;;;;;;9.60;6.85;;;;;;;;;;5034312;28;20235;-68
2021/05/26 03:49:48;;;;;;;14.23;6.78;;;;;;;;;;5035323;28;20681;-67
2021/05/26 03:52:14;;;;;;;8.80;5.80;;;;;;;;;;5037068;28;20195;-66
2021/05/26 03:54:39;;;;;;;10.50;5.93;;;;;;;;;;5027209;28;20205;-67
2021/05/26 03:57:06;;;;;;;8.57;4.75;;;;;;;;;;5035368;28;20561;-66
2021/05/26 03:59:31;;;;;;;7.60;5.03;;;;;;;;;;5028909;28;20197;-67
2021/05/26 04:01:56;;;;;;;9.95;5.53;;;;;;;;;;5039426;28;20219;-67
2021/05/26 04:04:22;;;;;;;7.03;4.82;;;;;;;;;;5026112;28;20247;-69
2021/05/26 04:06:48;;;;;;;5.85;4.57;;;;;;;;;;5041288;28;20207;-67
2021/05/26 04:09:13;;;;;;;8.18;4.30;;;;;;;;;;5023143;28;20204;-67
2021/05/26 04:11:39;;;;;;;6.70;4.03;;;;;;;;;;5036628;28;20220;-67
2021/05/26 04:14:04;;;;;;;5.53;3.88;;;;;;;;;;5028051;28;20498;-67
2021/05/26 04:16:29;;;;;;;7.78;3.70;;;;;;;;;;5040439;28;21242;-67
2021/05/26 04:18:55;;;;;;;6.28;3.90;;;;;;;;;;5026055;28;20664;-68
2021/05/26 04:21:20;;;;;;;7.75;4.20;;;;;;;;;;5036222;28;20193;-68
2021/05/26 04:23:45;;;;;;;5.07;3.30;;;;;;;;;;5034424;28;20288;-68
2021/05/26 04:26:11;;;;;;;7.05;3.78;;;;;;;;;;5025811;28;20283;-68
2021/05/26 04:28:43;;;;;;;4.18;3.15;;;;;;;;;;5034531;28;20200;-68
2021/05/26 04:31:11;;;;;;;5.75;3.42;;;;;;;;;;5029272;28;20185;-67
2021/05/26 04:33:36;;;;;;;3.72;2.67;;;;;;;;;;5034777;28;20220;-68
2021/05/26 04:36:02;;;;;;;3.55;2.67;;;;;;;;;;5027356;28;20189;-68
2021/05/26 04:38:27;;;;;;;3.60;2.78;;;;;;;;;;5035575;28;20655;-69
2021/05/26 04:40:52;;;;;;;3.60;2.60;;;;;;;;;;5026468;28;20190;-67
2021/05/26 04:43:19;;;;;;;5.05;2.42;;;;;;;;;;5033114;28;20366;-67
2021/05/26 04:45:44;;;;;;;4.47;2.67;;;;;;;;;;5026035;28;20602;-68
2021/05/26 04:48:10;;;;;;;5.35;2.20;;;;;;;;;;5031352;28;20197;-70
2021/05/26 04:50:35;;;;;;;4.13;2.30;;;;;;;;;;5025490;28;20249;-69
2021/05/26 04:53:00;;;;;;;2.88;2.20;;;;;;;;;;5031216;28;20272;-70
2021/05/26 04:55:26;;;;;;;4.10;2.28;;;;;;;;;;5033043;28;20281;-69
2021/05/26 04:58:02;;;;;;;2.97;2.40;;;;;;;;;;5022883;28;20201;-71
2021/05/26 05:00:28;;;;;;;2.92;2.20;;;;;;;;;;5037338;28;20188;-69
2021/05/26 05:02:54;;;;;;;4.75;2.53;;;;;;;;;;5029195;28;20544;-70
2021/05/26 05:05:20;;;;;;;5.63;2.90;;;;;;;;;;5036422;28;20189;-68
2021/05/26 05:07:46;;;;;;;5.03;2.45;;;;;;;;;;4338754;28;10000869;-70
2021/05/26 05:10:11;;;;;;;4.20;2.90;;;;;;;;;;5035816;28;20193;-68
2021/05/26 05:12:37;;;;;;;6.03;3.22;;;;;;;;;;5030310;28;20467;-68
2021/05/26 05:15:04;;;;;;;8.98;4.82;;;;;;;;;;5029556;28;20293;-69
2021/05/26 05:17:29;;;;;;;6.55;3.05;;;;;;;;;;5023468;28;20307;-68
2021/05/26 05:19:55;;;;;;;6.35;3.03;;;;;;;;;;5035825;28;20243;-70
2021/05/26 05:22:20;;;;;;;4.93;3.53;;;;;;;;;;5022267;28;23111;-69
2021/05/26 05:24:45;;;;;;;6.25;3.30;;;;;;;;;;5031985;28;20281;-69
2021/05/26 05:27:11;;;;;;;5.60;3.72;;;;;;;;;;5030925;28;20637;-70
2021/05/26 05:29:36;;;;;;;8.10;3.83;;;;;;;;;;5022924;28;20226;-69
2021/05/26 05:32:02;;;;;;;8.18;3.88;;;;;;;;;;5038067;28;20703;-69
2021/05/26 05:34:27;;;;;;;4.72;3.85;;;;;;;;;;5025120;28;20296;-69
2021/05/26 05:36:53;;;;;;;7.32;3.53;;;;;;;;;;5033966;28;20967;-69
2021/05/26 05:39:18;;;;;;;9.32;4.68;;;;;;;;;;5028900;28;20659;-68
2021/05/26 05:41:45;;;;;;;6.50;4.75;;;;;;;;;;5040106;28;20225;-68
2021/05/26 05:44:10;;;;;;;10.48;5.88;;;;;;;;;;5029661;28;20194;-68
2021/05/26 05:46:36;;;;;;;8.98;6.38;;;;;;;;;;5039323;28;20678;-69
2021/05/26 05:49:01;;;;;;;12.75;7.30;;;;;;;;;;5029219;28;20197;-68
2021/05/26 05:51:27;;;;;;;12.35;8.55;;;;;;;;;;4692247;28;9999790;-70
2021/05/26 05:53:52;;;;;;;14.27;8.93;;;;;;;;;;5027319;28;20276;-70
2021/05/26 05:56:17;;;;;;;15.45;10.52;;;;;;;;;;5038435;28;20245;-72
2021/05/26 05:58:43;;;;;;;13.00;9.35;;;;;;;;;;5034164;28;20280;-68
2021/05/26 06:01:08;;;;;;;17.95;11.70;;;;;;;;;;5031595;28;20213;-70
2021/05/26 06:03:33;;;;;;;21.00;11.82;;;;;;;;;;5034648;28;20371;-68
2021/05/26 06:05:59;;;;;;;20.58;12.52;;;;;;;;;;5034673;28;20246;-70
2021/05/26 06:08:24;;;;;;;18.83;11.25;;;;;;;;;;5030810;28;20652;-67
2021/05/26 06:10:50;;;;;;;21.83;12.88;;;;;;;;;;5028685;28;20189;-70
2021/05/26 06:13:15;;;;;;;22.92;13.27;;;;;;;;;;5032654;28;20189;-71
2021/05/26 06:15:41;;;;;;;26.10;14.15;;;;;;;;;;5027485;28;20556;-70
2021/05/26 06:18:06;;;;;;;23.45;13.73;;;;;;;;;;5030288;28;20219;-69
2021/05/26 06:20:31;;;;;;;25.42;14.35;;;;;;;;;;5028830;28;22336;-69
2021/05/26 06:22:57;;;;;;;27.67;15.35;;;;;;;;;;5035029;28;20673;-69
2021/05/26 06:25:22;;;;;;;24.05;15.00;;;;;;;;;;5037500;28;20186;-71
2021/05/26 06:27:48;;;;;;;21.40;13.55;;;;;;;;;;5031165;28;20178;-69
2021/05/26 06:30:13;;;;;;;24.38;14.82;;;;;;;;;;5039442;28;20572;-68
2021/05/26 06:32:39;;;;;;;24.05;14.68;;;;;;;;;;5030908;28;20665;-67
2021/05/26 06:35:05;;;;;;;26.10;13.90;;;;;;;;;;5040971;28;20238;-67
2021/05/26 06:37:30;;;;;;;22.90;14.10;;;;;;;;;;5034929;28;20619;-70
2021/05/26 06:39:56;;;;;;;22.13;13.85;;;;;;;;;;5038764;28;20193;-70
2021/05/26 06:42:21;;;;;;;25.65;14.02;;;;;;;;;;5031012;28;20206;-69
2021/05/26 06:44:48;;;;;;;19.77;13.50;;;;;;;;;;5038727;28;20188;-69
2021/05/26 06:47:13;;;;;;;22.35;13.00;;;;;;;;;;5032202;28;20181;-68
2021/05/26 06:49:39;;;;;;;19.92;12.90;;;;;;;;;;5033397;28;20376;-70
2021/05/26 06:52:04;;;;;;;21.88;13.60;;;;;;;;;;5031529;28;20652;-69
2021/05/26 06:54:30;;;;;;;25.63;13.02;;;;;;;;;;5038155;28;20192;-70
2021/05/26 06:56:55;;;;;;;20.77;13.40;;;;;;;;;;5042518;28;20264;-67
2021/05/26 06:59:21;;;;;;;23.50;13.02;;;;;;;;;;5034342;28;20185;-69
2021/05/26 07:01:47;;;;;;;18.98;12.50;;;;;;;;;;5044964;28;20208;-70
2021/05/26 07:04:12;;;;;;;21.65;12.60;;;;;;;;;;5026707;28;20250;-69
2021/05/26 07:06:37;;;;;;;22.38;13.00;;;;;;;;;;5038629;28;20679;-71
2021/05/26 07:09:03;;;;;;;19.70;13.43;;;;;;;;;;5032511;28;20185;-69
2021/05/26 07:11:28;;;;;;;17.65;12.15;;;;;;;;;;5036560;28;20232;-67
2021/05/26 07:13:54;;;;;;;21.90;12.93;;;;;;;;;;5029230;28;20177;-69
2021/05/26 07:16:19;;;;;;;22.13;11.95;;;;;;;;;;5039985;28;20200;-68
2021/05/26 07:18:47;;;;;;;18.80;12.48;;;;;;;;;;5027988;28;20629;-68
2021/05/26 07:21:16;;;;;;;21.42;12.23;;;;;;;;;;5035942;28;20189;-68
2021/05/26 07:23:42;;;;;;;16.65;11.23;;;;;;;;;;5035316;28;20282;-69
2021/05/26 07:26:07;;;;;;;17.88;10.85;;;;;;;;;;5036544;28;20193;-69
2021/05/26 07:28:32;;;;;;;16.65;10.98;;;;;;;;;;5033113;28;20190;-67
2021/05/26 07:30:58;;;;;;;20.88;11.32;;;;;;;;;;5033582;28;20276;-67
2021/05/26 07:33:23;;;;;;;24.83;10.82;;;;;;;;;;5035744;28;20811;-67
2021/05/26 07:35:48;;;;;;;16.85;10.40;;;;;;;;;;5031429;28;20190;-68
2021/05/26 07:38:14;;;;;;;17.40;10.20;;;;;;;;;;5035361;28;20185;-67
2021/05/26 07:40:39;;;;;;;19.17;9.80;;;;;;;;;;5028900;28;20198;-69
2021/05/26 07:43:05;;;;;;;17.10;9.75;;;;;;;;;;5037952;28;20392;-67
2021/05/26 07:45:30;;;;;;;16.58;10.30;;;;;;;;;;5029455;28;20244;-69
2021/05/26 07:47:55;;;;;;;15.30;9.63;;;;;;;;;;5035736;28;20194;-67
2021/05/26 07:50:21;;;;;;;23.30;10.27;;;;;;;;;;5027183;28;20308;-68
2021/05/26 07:52:46;;;;;;;20.77;10.80;;;;;;;;;;5035236;28;20180;-68
2021/05/26 07:55:12;;;;;;;19.42;10.30;;;;;;;;;;5023732;28;20188;-67
2021/05/26 07:57:37;;;;;;;16.75;10.70;;;;;;;;;;5035674;28;20186;-67
2021/05/26 08:00:05;;;;;;;16.45;9.85;;;;;;;;;;5029860;28;20758;-67
2021/05/26 08:02:30;;;;;;;18.10;9.63;;;;;;;;;;5031320;28;20235;-68
2021/05/26 08:04:55;;;;;;;16.10;10.10;;;;;;;;;;5034485;28;20185;-67
2021/05/26 08:07:21;;;;;;;13.50;10.15;;;;;;;;;;5027751;28;20240;-72
2021/05/26 08:09:46;;;;;;;18.88;10.60;;;;;;;;;;5040145;28;20532;-67
2021/05/26 08:12:13;;;;;;;18.33;10.10;;;;;;;;;;5030652;28;20268;-67
2021/05/26 08:14:39;;;;;;;15.75;10.68;;;;;;;;;;5032378;28;20602;-70
2021/05/26 08:17:04;;;;;;;16.17;10.45;;;;;;;;;;5029994;28;20212;-68
2021/05/26 08:19:30;;;;;;;14.25;9.93;;;;;;;;;;5037033;28;20285;-69
2021/05/26 08:21:56;;;;;;;17.77;9.93;;;;;;;;;;5031547;28;20204;-70
2021/05/26 08:24:21;;;;;;;13.60;10.48;;;;;;;;;;5031360;28;20190;-66
2021/05/26 08:26:50;;;;;;;16.88;10.25;;;;;;;;;;5028965;28;20193;-69
2021/05/26 08:29:16;;;;;;;13.75;10.27;;;;;;;;;;5032017;28;20177;-68
2021/05/26 08:31:42;;;;;;;15.93;9.90;;;;;;;;;;5027912;28;20181;-67
2021/05/26 08:34:07;;;;;;;15.70;9.20;;;;;;;;;;5032256;28;20668;-67
2021/05/26 08:36:33;;;;;;;14.00;9.05;;;;;;;;;;5034508;28;20636;-70
2021/05/26 08:38:58;;;;;;;16.40;8.63;;;;;;;;;;5027102;28;20189;-68
2021/05/26 08:41:24;;;;;;;13.70;9.23;;;;;;;;;;5039515;28;20193;-68
2021/05/26 08:43:50;;;;;;;12.82;7.40;;;;;;;;;;5024927;28;20252;-67
2021/05/26 08:46:16;;;;;;;10.07;7.00;;;;;;;;;;5039867;28;20212;-67
2021/05/26 08:48:42;;;;;;;11.80;7.65;;;;;;;;;;5025463;28;20637;-68
2021/05/26 08:51:10;;;;;;;12.85;7.13;;;;;;;;;;5037953;28;20221;-69
2021/05/26 08:53:36;;;;;;;11.75;6.57;;;;;;;;;;5027089;28;20186;-68
2021/05/26 08:56:03;;;;;;;13.93;7.45;;;;;;;;;;5045162;28;20590;-67
2021/05/26 08:58:29;;;;;;;11.70;6.70;;;;;;;;;;5031038;28;20181;-67
2021/05/26 09:00:54;;;;;;;10.32;6.95;;;;;;;;;;5033713;28;20186;-67
2021/05/26 09:03:20;;;;;;;11.55;6.57;;;;;;;;;;5027047;28;20220;-67
2021/05/26 09:05:52;;;;;;;16.98;7.30;;;;;;;;;;5032703;28;20189;-67
2021/05/26 09:08:19;;;;;;;11.25;7.13;;;;;;;;;;5025780;28;20189;-71
2021/05/26 09:10:59;;;;;;;12.40;6.72;;;;;;;;;;5038886;28;20190;-67
2021/05/26 09:13:35;;;;;;;17.63;7.22;;;;;;;;;;5038320;28;20189;-67
2021/05/26 09:16:06;;;;;;;12.32;7.03;;;;;;;;;;5036120;28;20181;-67
2021/05/26 09:19:04;;;;;;;11.55;6.88;;;;;;;;;;5041721;28;20460;-67
2021/05/26 09:21:43;;;;;;;12.23;7.22;;;;;;;;;;5040282;28;20677;-67
2021/05/26 09:24:21;;;;;;;11.25;7.43;;;;;;;;;;5030587;28;20256;-68
2021/05/26 09:27:01;;;;;;;10.77;6.45;;;;;;;;;;5038102;28;20213;-67
2021/05/26 09:29:27;;;;;;;11.77;5.35;;;;;;;;;;5034153;28;20185;-66
2021/05/26 09:32:31;;;;;;;10.55;6.70;;;;;;;;;;5038697;28;20204;-69
2021/05/26 09:34:58;;;;;;;11.80;5.95;;;;;;;;;;5021992;28;20211;-70
2021/05/26 09:37:26;;;;;;;7.70;5.30;;;;;;;;;;5039889;28;20543;-67
2021/05/26 09:40:07;;;;;;;8.35;5.20;;;;;;;;;;5036558;28;20197;-66
2021/05/26 09:42:38;;;;;;;9.98;5.93;;;;;;;;;;5041638;28;20241;-68
2021/05/26 09:45:18;;;;;;;10.25;5.30;;;;;;;;;;5039981;28;20262;-70
2021/05/26 09:47:46;;;;;;;11.07;4.82;;;;;;;;;;5037808;28;20188;-67
2021/05/26 09:50:35;;;;;;;10.15;5.82;;;;;;;;;;5036717;28;20302;-67
2021/05/26 09:53:19;;;;;;;12.10;5.82;;;;;;;;;;5034701;28;20185;-67
2021/05/26 09:55:48;;;;;;;12.10;5.88;;;;;;;;;;5038324;28;20283;-69
2021/05/26 09:58:16;;;;;;;11.65;5.85;;;;;;;;;;5036487;28;20235;-67
2021/05/26 10:00:44;;;;;;;8.98;5.22;;;;;;;;;;5038055;28;20189;-68
2021/05/26 10:03:09;;;;;;;8.73;4.63;;;;;;;;;;5031762;28;20285;-67
2021/05/26 10:05:35;;;;;;;9.05;4.60;;;;;;;;;;5038003;28;20301;-73
2021/05/26 10:08:06;;;;;;;8.52;5.18;;;;;;;;;;5030440;28;20194;-69
2021/05/26 10:10:32;;;;;;;11.52;5.13;;;;;;;;;;5035272;28;20268;-67
2021/05/26 10:13:04;;;;;;;6.72;4.45;;;;;;;;;;5031655;28;20269;-67
2021/05/26 10:15:34;;;;;;;7.90;4.20;;;;;;;;;;5038181;28;20215;-67
2021/05/26 10:18:01;;;;;;;9.68;4.70;;;;;;;;;;5031164;28;20657;-69
2021/05/26 10:20:35;;;;;;;5.28;2.92;;;;;;;;;;5040670;28;20181;-66
2021/05/26 10:23:02;;;;;;;4.85;2.63;;;;;;;;;;5038063;28;20210;-72
2021/05/26 10:25:28;;;;;;;10.00;4.72;;;;;;;;;;5039380;28;20185;-72
2021/05/26 10:27:55;;;;;;;8.77;6.82;;;;;;;;;;5030087;28;20722;-74
2021/05/26 10:30:26;;;;;;;14.15;7.90;;;;;;;;;;5036032;28;20538;-71
2021/05/26 10:33:02;;;;;;;9.25;7.95;;;;;;;;;;5031290;28;20175;-71
2021/05/26 10:35:29;;;;;;;9.18;5.07;;;;;;;;;;5034198;28;20192;-71
2021/05/26 10:38:06;;;;;;;6.20;3.45;;;;;;;;;;5036560;28;20508;-71
2021/05/26 10:40:37;;;;;;;5.63;2.60;;;;;;;;;;5042301;28;20543;-69
2021/05/26 10:43:15;;;;;;;3.40;2.50;;;;;;;;;;5040873;28;20304;-68
2021/05/26 10:45:41;;;;;;;4.18;3.05;;;;;;;;;;5032335;28;20222;-70
2021/05/26 10:48:07;;;;;;;3.78;2.50;;;;;;;;;;5034879;28;20189;-70
2021/05/26 10:50:45;;;;;;;5.00;2.47;;;;;;;;;;5031069;28;20686;-68
2021/05/26 10:53:10;;;;;;;3.40;2.25;;;;;;;;;;5036196;28;20640;-69
2021/05/26 10:55:53;;;;;;;5.47;2.67;;;;;;;;;;5029327;28;20217;-68
2021/05/26 10:58:29;;;;;;;7.18;3.50;;;;;;;;;;5037705;28;20648;-67
2021/05/26 11:01:00;;;;;;;4.82;2.97;;;;;;;;;;5031965;28;20197;-67
2021/05/26 11:03:25;;;;;;;3.85;2.35;;;;;;;;;;5043420;28;20209;-67
2021/05/26 11:05:54;;;;;;;3.75;1.83;;;;;;;;;;5030597;28;20679;-67
2021/05/26 11:08:29;;;;;;;3.03;1.33;;;;;;;;;;5040395;28;20276;-66
2021/05/26 11:10:55;;;;;;;1.95;1.48;;;;;;;;;;5027330;28;20185;-67
2021/05/26 11:13:21;;;;;;;3.72;1.38;;;;;;;;;;5031092;28;20558;-68
2021/05/26 11:15:48;;;;;;;2.30;0.85;;;;;;;;;;5030177;28;20196;-68
2021/05/26 11:20:50;;;;;;;1.90;0.93;;;;;;;;;;5033067;28;20189;-69
2021/05/26 11:23:15;;;;;;;3.00;1.02;;;;;;;;;;5044600;28;20209;-72
2021/05/26 11:25:57;;;;;;;3.10;0.88;;;;;;;;;;5031425;28;20186;-70
2021/05/26 11:28:27;;;;;;;1.88;0.70;;;;;;;;;;5041404;28;20234;-66
2021/05/26 11:31:03;;;;;;;2.08;1.00;;;;;;;;;;5034181;28;20708;-67
2021/05/26 11:33:28;;;;;;;2.25;0.93;;;;;;;;;;5040353;28;20616;-66
2021/05/26 11:35:58;;;;;;;2.72;1.10;;;;;;;;;;5037548;28;20189;-67
2021/05/26 11:38:26;;;;;;;1.95;0.82;;;;;;;;;;5028409;28;20342;-67
2021/05/26 11:40:52;;;;;;;3.80;1.48;;;;;;;;;;5041323;28;20267;-67
2021/05/26 11:43:19;;;;;;;2.85;1.23;;;;;;;;;;5026145;28;20586;-69
2021/05/26 11:45:44;;;;;;;2.10;1.13;;;;;;;;;;5037596;28;20322;-66
2021/05/26 11:48:09;;;;;;;1.95;1.10;;;;;;;;;;5033025;28;20279;-66
2021/05/26 11:50:37;;;;;;;1.90;1.17;;;;;;;;;;5039908;28;20225;-70
2021/05/26 11:53:02;;;;;;;2.38;1.27;;;;;;;;;;5027430;28;20182;-69
2021/05/26 11:55:29;;;;;;;2.88;1.60;;;;;;;;;;5041030;28;20271;-69
2021/05/26 11:57:55;;;;;;;3.50;1.92;;;;;;;;;;5028209;28;20278;-67
2021/05/26 12:00:20;;;;;;;3.70;1.80;;;;;;;;;;5041690;28;20189;-70
2021/05/26 12:03:02;;;;;;;3.88;1.90;;;;;;;;;;5032835;28;20791;-69
2021/05/26 12:05:45;;;;;;;2.88;1.73;;;;;;;;;;5036787;28;20185;-69
2021/05/26 12:08:21;;;;;;;3.88;1.80;;;;;;;;;;5028711;28;20217;-70
2021/05/26 12:10:50;;;;;;;4.10;2.08;;;;;;;;;;5039018;28;20196;-68
2021/05/26 12:13:20;;;;;;;6.03;1.98;;;;;;;;;;5029863;28;20519;-67
2021/05/26 12:15:46;;;;;;;4.65;1.83;;;;;;;;;;5034691;28;20259;-72
2021/05/26 12:18:12;;;;;;;3.03;1.75;;;;;;;;;;5038123;28;20634;-68
2021/05/26 12:20:49;;;;;;;7.65;1.88;;;;;;;;;;5027519;28;20193;-69
2021/05/26 12:23:28;;;;;;;2.97;1.65;;;;;;;;;;5034660;28;20838;-67
2021/05/26 12:25:54;;;;;;;4.45;1.67;;;;;;;;;;5028888;28;20186;-69
2021/05/26 12:28:21;;;;;;;2.17;1.40;;;;;;;;;;5032210;28;20193;-67
2021/05/26 12:30:48;;;;;;;4.13;1.70;;;;;;;;;;5029607;28;20224;-68
2021/05/26 12:33:19;;;;;;;2.17;1.30;;;;;;;;;;5033045;28;20575;-67
2021/05/26 12:35:58;;;;;;;2.63;1.20;;;;;;;;;;5030368;28;20185;-67
2021/05/26 12:38:24;;;;;;;2.38;1.15;;;;;;;;;;5035797;28;20213;-70
2021/05/26 12:40:49;;;;;;;0.98;0.75;;;;;;;;;;5029975;28;20216;-70
2021/05/26 12:43:24;;;;;;;1.58;1.00;;;;;;;;;;5039869;28;20252;-68
2021/05/26 12:45:49;;;;;;;3.92;1.40;;;;;;;;;;5027063;28;20258;-70
2021/05/26 12:48:15;;;;;;;7.45;1.70;;;;;;;;;;4338062;28;10000744;-70
2021/05/26 12:50:41;;;;;;;4.13;1.92;;;;;;;;;;5027499;28;20335;-69
2021/05/26 12:53:13;;;;;;;3.03;1.70;;;;;;;;;;5033814;28;20547;-69
2021/05/26 12:55:39;;;;;;;4.18;2.47;;;;;;;;;;5029267;28;20204;-71
2021/05/26 12:58:10;;;;;;;5.10;2.78;;;;;;;;;;5032755;28;20585;-70
2021/05/26 13:00:38;;;;;;;3.47;2.60;;;;;;;;;;5026857;28;20235;-68
2021/05/26 13:03:13;;;;;;;5.63;2.90;;;;;;;;;;5038085;28;20221;-68
2021/05/26 13:05:41;;;;;;;4.88;2.92;;;;;;;;;;5035037;28;20611;-67
2021/05/26 13:08:12;;;;;;;4.53;3.33;;;;;;;;;;5032076;28;20189;-66
2021/05/26 13:11:00;;;;;;;10.52;3.90;;;;;;;;;;5038256;28;20675;-66
2021/05/26 13:13:29;;;;;;;5.93;4.13;;;;;;;;;;5042190;28;20310;-67
2021/05/26 13:15:56;;;;;;;4.88;3.78;;;;;;;;;;5035962;28;20272;-68
2021/05/26 13:18:24;;;;;;;6.78;3.95;;;;;;;;;;5027875;28;20197;-66
2021/05/26 13:20:50;;;;;;;3.45;3.10;;;;;;;;;;5035547;28;20197;-66
2021/05/26 13:23:16;;;;;;;6.20;3.40;;;;;;;;;;5034842;28;20225;-66
2021/05/26 13:25:44;;;;;;;6.60;3.63;;;;;;;;;;5038281;28;20622;-67
2021/05/26 13:28:11;;;;;;;3.53;2.63;;;;;;;;;;5029105;28;20196;-69
2021/05/26 13:30:42;;;;;;;4.35;2.55;;;;;;;;;;5036728;28;20181;-66
2021/05/26 13:33:08;;;;;;;4.65;2.78;;;;;;;;;;5032066;28;20222;-67
2021/05/26 13:35:34;;;;;;;4.68;2.72;;;;;;;;;;5036779;28;20232;-69
2021/05/26 13:38:00;;;;;;;3.35;2.67;;;;;;;;;;5030943;28;20528;-68
2021/05/26 13:40:26;;;;;;;3.47;2.92;;;;;;;;;;5037806;28;20201;-67
2021/05/26 13:42:54;;;;;;;2.75;2.53;;;;;;;;;;5031155;28;20201;-66
2021/05/26 13:45:19;;;;;;;2.58;2.35;;;;;;;;;;5037467;28;20256;-67
2021/05/26 13:47:45;;;;;;;3.53;2.13;;;;;;;;;;5029147;28;20187;-67
2021/05/26 13:50:16;;;;;;;4.88;1.70;;;;;;;;;;5036058;28;20647;-67
2021/05/26 13:52:48;;;;;;;1.55;1.02;;;;;;;;;;5033457;28;20220;-66
2021/05/26 13:55:15;;;;;;;3.88;1.00;;;;;;;;;;5030569;28;20250;-68
2021/05/26 13:57:41;;;;;;;4.03;1.02;;;;;;;;;;5035635;28;20182;-68
2021/05/26 14:00:08;;;;;;;2.17;0.90;;;;;;;;;;5030311;28;20217;-67
2021/05/26 14:02:34;;;;;;;3.13;0.75;;;;;;;;;;5038712;28;20208;-67
2021/05/26 14:04:59;;;;;;;1.67;0.60;;;;;;;;;;5032478;28;20194;-67
2021/05/26 14:07:25;;;;;;;1.30;0.80;;;;;;;;;;5040519;28;20185;-67
2021/05/26 14:09:50;;;;;;;1.40;0.70;;;;;;;;;;5029915;28;20553;-66
2021/05/26 14:12:15;;;;;;;2.30;1.10;;;;;;;;;;5036157;28;20196;-67
2021/05/26 14:14:41;;;;;;;2.92;1.00;;;;;;;;;;5025943;28;20250;-67
2021/05/26 14:17:06;;;;;;;1.58;1.00;;;;;;;;;;5041460;28;20193;-66
2021/05/26 14:19:31;;;;;;;4.22;1.10;;;;;;;;;;5029561;28;20531;-67
2021/05/26 14:21:58;;;;;;;3.20;1.10;;;;;;;;;;5037145;28;20240;-66
2021/05/26 14:24:24;;;;;;;1.67;1.10;;;;;;;;;;5038656;28;20251;-66
2021/05/26 14:26:49;;;;;;;1.88;1.00;;;;;;;;;;5031327;28;20209;-67
2021/05/26 14:29:15;;;;;;;2.10;0.90;;;;;;;;;;5040201;28;20248;-69
2021/05/26 14:31:40;;;;;;;2.85;1.00;;;;;;;;;;5030664;28;20705;-67
2021/05/26 14:34:06;;;;;;;3.38;1.40;;;;;;;;;;5034845;28;20691;-66
2021/05/26 14:36:33;;;;;;;4.03;1.02;;;;;;;;;;5035591;28;20215;-69
2021/05/26 14:39:00;;;;;;;3.22;1.08;;;;;;;;;;5039073;28;20208;-66